This is the latest recevied weather packets stored in our database for station/object KB0BS-13. If no packets are shown the sender has not sent any weather packets the latest 10 day(s).
| Time | Temp. | Humidity | Pressure | Rain* | Wind** | Luminosity | Snow |
|---|---|---|---|---|---|---|---|
| 1777643067 | 2.22° C | 81% | 1016.3 hPa | 0 mm | - | 397 W/m² | - |
| 1777642764 | 2.22° C | 77% | 1016.7 hPa | 0 mm | - | 305 W/m² | - |
| 1777642461 | 2.22° C | 81% | 1016.7 hPa | 1.27 mm | - | 329 W/m² | - |
| 1777642157 | 2.22° C | 81% | 1016.6 hPa | 1.27 mm | - | 343 W/m² | - |
| 1777641855 | 2.22° C | 83% | 1016.6 hPa | 0 mm | - | 349 W/m² | - |
| 1777641549 | 2.22° C | 86% | 1016.6 hPa | 1.78 mm | - | 349 W/m² | - |
| 1777641249 | 2.22° C | 83% | 1016.5 hPa | 1.78 mm | - | 319 W/m² | - |
| 1777640946 | 2.22° C | 84% | 1016.5 hPa | 1.27 mm | - | 316 W/m² | - |
| 1777640643 | 2.22° C | 85% | 1016.7 hPa | 1.27 mm | - | 302 W/m² | - |
| 1777640339 | 1.67° C | 87% | 1016.6 hPa | 0 mm | - | 285 W/m² | - |
| 1777640035 | 1.67° C | 88% | 1016.3 hPa | 0 mm | - | 270 W/m² | - |
| 1777639733 | 1.67° C | 89% | 1016.3 hPa | 0 mm | - | 258 W/m² | - |
| 1777639431 | 1.67° C | 91% | 1016.5 hPa | 0 mm | - | 242 W/m² | - |
| 1777639131 | 1.11° C | 92% | 1016.5 hPa | 0 mm | - | 229 W/m² | - |
| 1777638828 | 1.11° C | 93% | 1016.3 hPa | 0 mm | - | 212 W/m² | - |
| 1777638523 | 1.11° C | 92% | 1016.3 hPa | 0 mm | - | 200 W/m² | - |
| 1777638221 | 1.11° C | 93% | 1016.3 hPa | 0 mm | - | 185 W/m² | - |
| 1777637917 | 0.56° C | 94% | 1016.1 hPa | 0 mm | - | 176 W/m² | - |
| 1777637613 | 0.56° C | 94% | 1016.1 hPa | 0 mm | - | 163 W/m² | - |
| 1777637311 | 0.56° C | 95% | 1016.1 hPa | 0 mm | - | 149 W/m² | - |
| 1777637007 | 0.56° C | 95% | 1016 hPa | 0 mm | - | 135 W/m² | - |
| 1777636703 | 0.56° C | 96% | 1016.2 hPa | 0 mm | - | 117 W/m² | - |
| 1777636399 | 0° C | 96% | 1016 hPa | 0 mm | - | 113 W/m² | - |
| 1777636095 | 0° C | 96% | 1016 hPa | 0 mm | - | 126 W/m² | - |
| 1777635790 | -0.56° C | 96% | 1016 hPa | 0 mm | - | 108 W/m² | - |
* Rain latest hour (hover to see other rain measurements)
** Current wind speed in m/s (hover to see current wind gust speed)